Warren, PA (16367)

12:03 AM EDT on July 12, 2014 (GMT -0400)
RAWS KINZUA PA US (MKZAP1) Elev 1408 ft | 41.90 °N, 79.12 °W | Change Station

Current weather conditions updated 56 minutes ago

Clear
Clear
61 °F
Feels Like 61 °F
N
0
Wind Variable Wind from North
Gusts 1.0 mph

Today is forecast to be Warmer than yesterday. A few showers developing late tomorrow night.

Today
High -- | Low -- °F
--% Chance of Precip.
Yesterday
High -- | Low -- °F
Precip. -- in
5:52 AM 8:51 PM
Full, 100% visible
Pressure 30.24 in
Visibility 10.0 miles
Clouds Clear
Dew Point 59 °F
Humidity 93%
Rainfall 0.00 in
Snow Depth Not available.
UV 0 out of 12
Pollen 3.30 out of 12
Air Quality Not available.
Flu Activity Sporadic
METAR KJHW 120355Z AUTO 08003KT 10SM CLR 19/10 A3024 RMK AO1

More Conditions Fewer Conditions

Pressure 30.24 in
Visibility 10.0 miles
Clouds Clear
Dew Point 59 °F
Humidity 93%
Rainfall 0.00 in
Snow Depth Not available.
UV 0 out of 12
Pollen 3.30 out of 12
Air Quality Not available.
Flu Activity Sporadic
METAR KJHW 120355Z AUTO 08003KT 10SM CLR 19/10 A3024 RMK AO1

More Conditions Fewer Conditions

10-Day Weather Forecast

Almanac

Astronomy

Jul. 12, 2014 Rise Set
Actual Time 5:52 AM EDT 8:51 PM EDT
Civil Twilight 5:18 AM EDT 9:25 PM EDT
Nautical Twilight 4:36 AM EDT 10:07 PM EDT
Astronomical Twilight 3:46 AM EDT 10:57 PM EDT
Moon 8:50 PM EDT 6:11 AM EDT
Length of Visible Light 16h 06m
Length of Day
14h 59m
Tomorrow will be 1m 19s shorter.
Full, 100% of the Moon is Illuminated
Today
Full
Jul 12
Full
Jul 18
Last Quarter
Jul 26
New
Aug 3
First Quarter

Yesterday's Extremes

State Highs State Lows

Community

WunderPhotos

Upload Photos

1,732,699 photos uploaded!

Nearby

Snow Depth

Station Depth Elevation
No new snow has been reported.

Earthquake Activity

City Distance Mag. Time & Date
No recent earthquake activity has been reported nearby.
Minimum magnitude displayed is 2.5.

Coastal Water Temperatures

Place Temperature
No Stations Reporting

Nearby Weather Stations

Station Location Temp. Dew Point Humidity Wind Precip. Elev Updated Type
RAWS KINZUA PA, Russell, PA 61 °F 59 °F 93% North  at  0 mph 0.00 in / hr 1408 ft 11:07 PM EDT MADIS
Brokenstraw Airport, Pittsfield, PA 58.2 °F 57 °F 95% West  at  0.0 mph 0.00 in / hr 1235 ft 12:03 AM EDT Rapid Fire
East Lakewood Weather, Lakewood, NY 63.0 °F 56 °F 77% WSW  at  0.0 mph 0.00 in / hr 1325 ft 12:03 AM EDT Rapid Fire
RAWS ALLEGHENY PA, Marienville, PA 60 °F 60 °F 99% North  at  0 mph 0.00 in / hr 1766 ft 11:07 PM EDT MADIS
Sleepy Hollow, Bradford, PA 62.1 °F 60 °F 92% WSW  at  0.0 mph 0.00 in / hr 1588 ft 12:03 AM EDT Rapid Fire

Show More Stations Show Fewer Stations